createdAt,value
2023-07-22T00:01:30.282Z,87.25
2023-07-22T00:04:32.612Z,86.85
2023-07-22T00:07:34.943Z,87.40
2023-07-22T00:10:41.302Z,87.49
2023-07-22T00:13:45.102Z,86.92
2023-07-22T00:16:47.146Z,87.32
2023-07-22T00:19:49.329Z,87.13
2023-07-22T00:22:51.669Z,87.30
2023-07-22T00:25:53.680Z,87.50
2023-07-22T00:28:55.598Z,87.41
2023-07-22T00:31:57.558Z,86.67
2023-07-22T00:34:59.636Z,88.38
2023-07-22T00:38:02.703Z,87.73
2023-07-22T00:41:05.933Z,88.12
2023-07-22T00:44:07.943Z,88.28
2023-07-22T00:47:10.860Z,86.95
2023-07-22T00:50:13.898Z,86.79
2023-07-22T00:53:16.193Z,86.33
2023-07-22T00:56:18.309Z,86.43
2023-07-22T00:59:20.445Z,86.39
2023-07-22T01:02:23.224Z,87.07
2023-07-22T01:05:27.704Z,87.11
2023-07-22T01:08:30.075Z,86.91
2023-07-22T01:11:32.075Z,87.02
2023-07-22T01:14:39.058Z,87.51
2023-07-22T01:17:41.216Z,87.62
2023-07-22T01:20:44.126Z,87.44
2023-07-22T01:23:46.196Z,87.57
2023-07-22T01:26:48.990Z,88.33
2023-07-22T01:29:55.001Z,87.74
2023-07-22T01:32:57.477Z,88.26
2023-07-22T01:36:01.920Z,87.19
2023-07-22T01:39:06.927Z,87.79
2023-07-22T01:42:09.254Z,87.54
2023-07-22T01:45:11.867Z,86.96
2023-07-22T01:48:14.253Z,87.27
2023-07-22T01:51:16.202Z,88.69
2023-07-22T01:54:18.143Z,89.17
2023-07-22T01:57:20.339Z,87.66
2023-07-22T02:00:22.384Z,88.75
2023-07-22T02:03:24.569Z,88.92
2023-07-22T02:06:28.309Z,89.42
2023-07-22T02:09:31.026Z,88.28
2023-07-22T02:12:33.168Z,88.98
2023-07-22T02:15:36.058Z,89.37
2023-07-22T02:18:38.917Z,88.64
2023-07-22T02:21:41.530Z,88.62
2023-07-22T02:24:43.915Z,87.87
2023-07-22T02:27:46.655Z,88.39
2023-07-22T02:30:50.150Z,88.28
2023-07-22T02:33:52.777Z,88.15
2023-07-22T02:36:55.426Z,88.63
2023-07-22T02:39:57.824Z,89.36
2023-07-22T02:43:00.093Z,87.66
2023-07-22T02:46:04.209Z,88.73
2023-07-22T02:49:06.413Z,89.18
2023-07-22T02:52:09.108Z,88.48
2023-07-22T02:55:21.792Z,88.65
2023-07-22T02:58:24.165Z,87.96
2023-07-22T03:01:26.728Z,87.27
2023-07-22T03:04:29.071Z,87.12
2023-07-22T03:07:31.260Z,86.53
2023-07-22T03:10:33.750Z,86.61
2023-07-22T03:13:36.603Z,87.07
2023-07-22T03:16:41.351Z,86.52
2023-07-22T03:19:43.837Z,86.21
2023-07-22T03:22:46.835Z,86.71
2023-07-22T03:25:49.353Z,87.10
2023-07-22T03:28:51.765Z,86.08
2023-07-22T03:31:53.885Z,87.55
2023-07-22T03:34:57.577Z,86.18
2023-07-22T03:37:59.772Z,85.92
2023-07-22T03:41:04.081Z,86.61
2023-07-22T03:44:09.957Z,86.90
2023-07-22T03:47:12.082Z,86.47
2023-07-22T03:50:14.286Z,85.91
2023-07-22T03:53:18.696Z,85.20
2023-07-22T03:56:20.669Z,86.43
2023-07-22T03:59:24.955Z,85.62
2023-07-22T04:02:28.068Z,84.86
2023-07-22T04:05:30.338Z,85.00
2023-07-22T04:08:32.710Z,86.06
2023-07-22T04:11:34.722Z,86.25
2023-07-22T04:14:44.030Z,84.62
2023-07-22T04:28:04.747Z,81.35
2023-07-22T05:08:16.166Z,67.67
2023-07-22T05:09:28.146Z,64.98
2023-07-22T05:13:17.785Z,64.81
2023-07-22T05:16:31.433Z,64.06
2023-07-22T05:19:57.634Z,62.89
2023-07-22T05:23:16.378Z,63.35
2023-07-22T05:26:24.442Z,64.30
2023-07-22T05:29:29.599Z,61.72
2023-07-22T05:32:53.073Z,60.83
2023-07-22T05:35:58.658Z,59.09
2023-07-22T05:39:08.692Z,61.95
2023-07-22T05:42:19.262Z,59.11
2023-07-22T05:45:31.865Z,56.59
2023-07-22T05:48:41.024Z,61.07
2023-07-22T05:51:54.323Z,56.43
2023-07-22T05:59:34.298Z,55.75
2023-07-22T06:08:23.290Z,51.31
2023-07-22T06:11:25.503Z,53.54
2023-07-22T06:14:28.366Z,51.97
2023-07-22T06:17:30.567Z,51.34
2023-07-22T06:20:47.214Z,45.94
2023-07-22T06:23:51.729Z,46.75
2023-07-22T06:26:54.019Z,47.50
2023-07-22T06:29:59.253Z,49.11
2023-07-22T06:33:01.975Z,49.77
2023-07-22T06:36:04.352Z,49.00
2023-07-22T06:39:16.422Z,51.79
2023-07-22T06:42:21.117Z,50.06
2023-07-22T06:45:38.514Z,49.33
2023-07-22T06:50:00.567Z,47.78
2023-07-22T07:02:50.963Z,43.40
2023-07-22T07:06:53.287Z,42.23
2023-07-22T07:11:06.588Z,44.59
2023-07-22T07:19:44.240Z,41.99
2023-07-22T07:22:58.863Z,46.37
2023-07-22T07:26:28.212Z,44.92
2023-07-22T07:33:48.012Z,42.95
2023-07-22T07:36:53.244Z,39.95
2023-07-22T07:44:59.954Z,36.88
2023-07-22T07:48:10.024Z,37.45
2023-07-22T08:02:43.175Z,38.32
2023-07-22T08:16:33.408Z,36.24
2023-07-22T08:34:31.716Z,31.27
2023-07-22T08:46:09.825Z,31.44
2023-07-22T09:06:53.716Z,34.28
2023-07-22T09:12:03.887Z,35.23
2023-07-22T09:52:15.212Z,48.86
2023-07-22T09:55:34.574Z,45.75
2023-07-22T10:03:03.941Z,49.77
2023-07-22T10:04:35.430Z,48.60
2023-07-22T10:06:18.397Z,51.22
2023-07-22T10:10:13.092Z,52.18
2023-07-22T10:13:38.471Z,55.14
2023-07-22T10:17:33.827Z,55.46
2023-07-22T10:21:57.022Z,56.27
2023-07-22T10:28:54.123Z,52.19
2023-07-22T10:32:01.164Z,51.61
2023-07-22T10:35:11.289Z,51.87
2023-07-22T10:37:08.205Z,53.80
2023-07-22T10:38:17.654Z,51.46
2023-07-22T10:41:19.854Z,50.93
2023-07-22T10:44:30.515Z,48.00
2023-07-22T10:48:08.754Z,47.19
2023-07-22T10:51:16.550Z,47.12
2023-07-22T10:55:04.011Z,48.63
2023-07-22T10:58:14.619Z,46.67
2023-07-22T11:01:55.943Z,46.42
2023-07-22T11:05:21.773Z,42.65
2023-07-22T11:08:42.773Z,37.79
2023-07-22T11:11:46.231Z,38.44
2023-07-22T11:14:52.832Z,36.30
2023-07-22T11:17:55.727Z,40.60
2023-07-22T11:20:57.700Z,39.24
2023-07-22T11:23:59.965Z,44.38
2023-07-22T11:27:05.101Z,44.14
2023-07-22T11:30:08.805Z,45.22
2023-07-22T11:33:10.943Z,48.31
2023-07-22T11:36:15.191Z,43.66
2023-07-22T11:39:19.758Z,49.71
2023-07-22T11:42:22.017Z,46.69
2023-07-22T11:45:26.510Z,46.30
2023-07-22T11:48:28.482Z,42.58
2023-07-22T11:51:38.374Z,43.82
2023-07-22T11:54:42.949Z,43.45
2023-07-22T11:57:57.442Z,41.96
2023-07-22T12:01:08.030Z,42.60
2023-07-22T12:04:16.331Z,43.12
2023-07-22T12:07:30.213Z,43.85
2023-07-22T12:10:35.481Z,43.12
2023-07-22T12:13:40.309Z,42.00
2023-07-22T12:16:43.672Z,43.64
2023-07-22T12:19:58.545Z,41.26
2023-07-22T12:23:12.263Z,42.76
2023-07-22T12:26:26.274Z,44.31
2023-07-22T12:29:28.701Z,45.03
2023-07-22T12:32:31.093Z,42.18
2023-07-22T12:35:40.438Z,44.43
2023-07-22T12:39:04.503Z,44.71
2023-07-22T12:42:07.050Z,44.89
2023-07-22T12:45:15.615Z,44.56
2023-07-22T12:48:22.423Z,41.81
2023-07-22T12:51:25.324Z,42.71
2023-07-22T12:54:30.154Z,45.57
2023-07-22T12:57:35.102Z,42.37
2023-07-22T13:00:40.121Z,44.36
2023-07-22T13:03:42.451Z,43.07
2023-07-22T13:06:46.862Z,46.61
2023-07-22T13:09:54.458Z,42.94
2023-07-22T13:12:56.852Z,45.15
2023-07-22T13:15:59.108Z,47.60
2023-07-22T13:19:04.357Z,47.20
2023-07-22T13:22:08.892Z,49.00
2023-07-22T13:25:16.130Z,47.29
2023-07-22T13:28:23.903Z,50.40
2023-07-22T13:31:27.051Z,49.74
2023-07-22T13:34:34.078Z,47.57
2023-07-22T13:37:36.496Z,47.65
2023-07-22T13:40:41.541Z,49.39
2023-07-22T13:43:44.424Z,48.45
2023-07-22T13:46:51.607Z,50.12
2023-07-22T13:49:53.990Z,49.96
2023-07-22T13:52:56.294Z,50.79
2023-07-22T13:56:03.814Z,49.06
2023-07-22T13:59:06.243Z,51.06
2023-07-22T14:02:09.291Z,48.04
2023-07-22T14:05:16.541Z,49.04
2023-07-22T14:08:21.561Z,48.37
2023-07-22T14:11:26.925Z,48.28
2023-07-22T14:14:32.227Z,49.12
2023-07-22T14:17:42.112Z,49.52
2023-07-22T14:20:45.189Z,50.26
2023-07-22T14:23:49.678Z,50.00
2023-07-22T14:26:55.339Z,51.63
2023-07-22T14:30:10.759Z,48.75
2023-07-22T14:33:22.750Z,49.37
2023-07-22T14:36:55.506Z,48.12
2023-07-22T14:40:06.249Z,47.90
2023-07-22T14:43:14.980Z,48.92
2023-07-22T14:46:17.657Z,48.60
2023-07-22T14:51:57.252Z,50.13
2023-07-22T14:53:17.565Z,48.58
2023-07-22T14:56:23.227Z,49.87
2023-07-22T14:59:25.488Z,48.07
2023-07-22T15:02:30.009Z,50.81
2023-07-22T15:05:32.517Z,49.84
2023-07-22T15:08:35.051Z,49.62
2023-07-22T15:11:38.324Z,46.93
2023-07-22T15:14:41.110Z,47.98
2023-07-22T15:17:43.229Z,45.23
2023-07-22T15:20:45.399Z,46.29
2023-07-22T15:23:51.250Z,44.56
2023-07-22T15:26:56.276Z,43.27
2023-07-22T15:30:04.363Z,45.31
2023-07-22T15:33:08.806Z,43.66
2023-07-22T15:36:11.390Z,44.35
2023-07-22T15:39:15.753Z,44.84
2023-07-22T15:42:18.269Z,46.09
2023-07-22T15:45:23.550Z,45.37
2023-07-22T15:48:31.196Z,45.58
2023-07-22T15:51:35.551Z,46.49
2023-07-22T15:54:40.059Z,44.63
2023-07-22T15:57:42.474Z,43.22
2023-07-22T16:00:47.752Z,42.15
2023-07-22T16:03:52.367Z,43.53
2023-07-22T16:06:56.770Z,43.23
2023-07-22T16:09:58.928Z,43.33
2023-07-22T16:13:03.591Z,45.45
2023-07-22T16:16:05.774Z,45.52
2023-07-22T16:19:08.010Z,46.11
2023-07-22T16:22:12.358Z,44.63
2023-07-22T16:25:15.155Z,44.19
2023-07-22T16:28:19.517Z,45.17
2023-07-22T16:31:26.511Z,45.88
2023-07-22T16:34:31.170Z,47.31
2023-07-22T16:37:36.194Z,46.87
2023-07-22T16:40:42.903Z,47.34
2023-07-22T16:43:47.196Z,47.69
2023-07-22T16:46:51.668Z,46.84
2023-07-22T16:49:53.930Z,47.63
2023-07-22T16:52:56.056Z,46.70
2023-07-22T16:56:03.050Z,48.85
2023-07-22T16:59:05.212Z,48.91
2023-07-22T17:02:07.323Z,48.21
2023-07-22T17:05:10.606Z,48.53
2023-07-22T17:08:15.112Z,47.41
2023-07-22T17:11:17.512Z,48.97
2023-07-22T17:14:23.676Z,49.61
2023-07-22T17:17:28.164Z,49.17
2023-07-22T17:20:32.802Z,47.70
2023-07-22T17:23:39.749Z,50.11
2023-07-22T17:26:44.338Z,50.29
2023-07-22T17:29:51.142Z,49.93
2023-07-22T17:32:58.696Z,50.32
2023-07-22T17:36:04.144Z,50.27
2023-07-22T17:39:06.306Z,50.53
2023-07-22T17:42:10.912Z,48.29
2023-07-22T17:45:13.108Z,48.84
2023-07-22T17:48:17.823Z,48.64
2023-07-22T17:51:22.121Z,46.58
2023-07-22T17:54:29.008Z,46.65
2023-07-22T17:57:34.274Z,47.67
2023-07-22T18:00:40.003Z,47.40
2023-07-22T18:03:42.303Z,49.25
2023-07-22T18:06:46.949Z,45.68
2023-07-22T18:09:51.586Z,49.06
2023-07-22T18:12:56.886Z,47.90
2023-07-22T18:16:01.438Z,52.22
2023-07-22T18:19:03.658Z,51.98
2023-07-22T18:22:10.432Z,54.19
2023-07-22T18:25:17.480Z,56.30
2023-07-22T18:28:19.653Z,52.95
2023-07-22T18:31:21.973Z,55.95
2023-07-22T18:34:24.454Z,56.54
2023-07-22T18:37:29.135Z,57.14
2023-07-22T18:40:33.453Z,57.95
2023-07-22T18:43:35.595Z,60.54
2023-07-22T18:46:38.244Z,59.42
2023-07-22T18:49:40.454Z,59.68
2023-07-22T18:52:42.533Z,61.13
2023-07-22T18:55:46.877Z,61.01
2023-07-22T18:58:48.951Z,61.83
2023-07-22T19:01:51.001Z,61.48
2023-07-22T19:04:53.227Z,63.06
2023-07-22T19:07:55.443Z,63.49
2023-07-22T19:10:57.605Z,63.73
2023-07-22T19:14:00.195Z,65.22
2023-07-22T19:17:05.076Z,64.14
2023-07-22T19:20:07.186Z,64.66
2023-07-22T19:23:11.652Z,63.68
2023-07-22T19:26:13.801Z,65.37
2023-07-22T19:29:15.932Z,65.91
2023-07-22T19:32:17.998Z,65.89
2023-07-22T19:35:20.192Z,66.00
2023-07-22T19:38:22.244Z,65.32
2023-07-22T19:41:24.356Z,66.38
2023-07-22T19:44:26.426Z,66.37
2023-07-22T19:47:28.534Z,67.20
2023-07-22T19:50:33.913Z,67.70
2023-07-22T19:53:37.356Z,66.51
2023-07-22T19:56:42.867Z,66.86
2023-07-22T19:59:57.817Z,67.28
2023-07-22T20:03:00.181Z,66.25
2023-07-22T20:06:05.562Z,66.65
2023-07-22T20:09:10.239Z,63.90
2023-07-22T20:12:15.222Z,65.93
2023-07-22T20:15:39.707Z,65.62
2023-07-22T20:18:44.655Z,66.74
2023-07-22T20:21:47.397Z,67.26
2023-07-22T20:24:49.782Z,67.72
2023-07-22T20:27:56.011Z,69.00
2023-07-22T20:31:09.349Z,68.11
2023-07-22T20:34:13.327Z,68.41
2023-07-22T20:37:15.457Z,67.81
2023-07-22T20:40:17.586Z,67.38
2023-07-22T20:43:21.942Z,69.23
2023-07-22T20:46:23.990Z,68.12
2023-07-22T20:49:28.949Z,67.50
2023-07-22T20:52:31.221Z,68.10
2023-07-22T20:55:34.686Z,67.33
2023-07-22T20:58:36.971Z,66.60
2023-07-22T21:01:39.231Z,67.47
2023-07-22T21:04:42.738Z,67.92
2023-07-22T21:07:47.180Z,67.54
2023-07-22T21:10:52.634Z,66.71
2023-07-22T21:13:54.748Z,67.05
2023-07-22T21:16:59.086Z,66.58
2023-07-22T21:20:03.782Z,67.26
2023-07-22T21:23:08.270Z,68.04
2023-07-22T21:26:12.900Z,68.18
2023-07-22T21:29:16.738Z,68.69
2023-07-22T21:32:18.830Z,67.66
2023-07-22T21:35:21.199Z,68.02
2023-07-22T21:38:23.418Z,68.59
2023-07-22T21:41:28.381Z,68.75
2023-07-22T21:44:30.923Z,71.08
2023-07-22T21:47:33.130Z,70.31
2023-07-22T21:50:39.277Z,72.31
2023-07-22T21:53:41.468Z,69.73
2023-07-22T21:56:43.616Z,70.10
2023-07-22T21:59:45.761Z,68.66
2023-07-22T22:02:47.981Z,69.34
2023-07-22T22:05:50.174Z,69.42
2023-07-22T22:08:52.788Z,69.18
2023-07-22T22:11:54.835Z,70.63
2023-07-22T22:14:56.998Z,71.26
2023-07-22T22:18:00.552Z,70.93
2023-07-22T22:21:03.356Z,71.18
2023-07-22T22:24:05.762Z,69.72
2023-07-22T22:27:07.885Z,70.34
2023-07-22T22:30:10.340Z,70.89
2023-07-22T22:33:12.658Z,71.58
2023-07-22T22:36:15.067Z,72.42
2023-07-22T22:39:19.476Z,72.59
2023-07-22T22:42:21.729Z,73.08
2023-07-22T22:45:23.941Z,73.23
2023-07-22T22:48:26.238Z,73.19
2023-07-22T22:51:30.882Z,72.77
2023-07-22T22:54:33.280Z,72.31
2023-07-22T22:57:38.236Z,72.63
2023-07-22T23:00:42.571Z,72.04
2023-07-22T23:03:45.189Z,72.42
2023-07-22T23:06:47.334Z,72.03
2023-07-22T23:09:49.509Z,72.24
2023-07-22T23:12:51.898Z,73.14
2023-07-22T23:15:56.278Z,73.86
2023-07-22T23:19:01.462Z,73.30
2023-07-22T23:22:03.593Z,72.82
2023-07-22T23:25:06.398Z,73.72
2023-07-22T23:28:08.480Z,73.16
2023-07-22T23:31:18.318Z,72.98
2023-07-22T23:34:20.810Z,74.63
2023-07-22T23:37:23.017Z,74.67
2023-07-22T23:40:27.452Z,74.97
2023-07-22T23:43:29.734Z,74.79
2023-07-22T23:46:32.907Z,75.55
2023-07-22T23:49:37.244Z,75.10
2023-07-22T23:52:41.638Z,73.97
2023-07-22T23:55:46.434Z,73.86
2023-07-22T23:58:48.659Z,74.29
